createdAt,value
2022-12-05T00:01:38.698Z,9.12
2022-12-05T00:04:07.303Z,9.07
2022-12-05T00:06:54.270Z,9.15
2022-12-05T00:09:21.244Z,9.63
2022-12-05T00:11:50.274Z,9.86
2022-12-05T00:14:17.459Z,9.46
2022-12-05T00:16:45.811Z,9.88
2022-12-05T00:19:14.185Z,9.40
2022-12-05T00:21:43.751Z,9.75
2022-12-05T00:24:13.194Z,9.10
2022-12-05T00:26:40.491Z,10.33
2022-12-05T00:29:07.682Z,10.57
2022-12-05T00:31:37.274Z,10.50
2022-12-05T00:34:05.306Z,10.60
2022-12-05T00:36:33.351Z,10.29
2022-12-05T00:39:06.469Z,10.37
2022-12-05T00:41:34.415Z,10.33
2022-12-05T00:44:01.395Z,10.52
2022-12-05T00:46:29.832Z,10.82
2022-12-05T00:48:57.232Z,10.80
2022-12-05T00:51:28.948Z,11.26
2022-12-05T00:53:59.669Z,11.67
2022-12-05T00:56:27.208Z,12.37
2022-12-05T00:58:55.146Z,12.22
2022-12-05T01:01:46.966Z,11.57
2022-12-05T01:04:19.598Z,11.99
2022-12-05T01:06:49.398Z,11.60
2022-12-05T01:09:19.993Z,11.91
2022-12-05T01:11:47.937Z,12.16
2022-12-05T01:14:17.617Z,11.71
2022-12-05T01:16:45.426Z,11.81
2022-12-05T01:19:23.236Z,12.30
2022-12-05T01:21:50.684Z,12.27
2022-12-05T01:24:17.804Z,12.45
2022-12-05T01:26:45.585Z,12.21
2022-12-05T01:29:16.491Z,12.62
2022-12-05T01:31:43.845Z,12.45
2022-12-05T01:34:13.696Z,12.93
2022-12-05T01:36:45.659Z,13.36
2022-12-05T01:39:12.791Z,13.44
2022-12-05T01:41:43.409Z,13.78
2022-12-05T01:44:13.462Z,14.84
2022-12-05T01:46:44.044Z,14.72
2022-12-05T01:49:18.958Z,14.94
2022-12-05T01:51:50.404Z,16.09
2022-12-05T01:54:18.920Z,16.12
2022-12-05T01:56:50.730Z,16.25
2022-12-05T01:59:24.101Z,17.14
2022-12-05T02:01:51.147Z,16.03
2022-12-05T02:04:18.128Z,15.35
2022-12-05T02:06:46.177Z,16.44
2022-12-05T02:09:13.078Z,16.69
2022-12-05T02:11:56.600Z,16.14
2022-12-05T02:14:57.295Z,16.48
2022-12-05T02:17:29.948Z,15.82
2022-12-05T02:20:19.005Z,17.14
2022-12-05T02:23:15.929Z,17.52
2022-12-05T02:26:16.676Z,17.47
2022-12-05T02:29:18.611Z,17.29
2022-12-05T02:32:20.824Z,18.08
2022-12-05T02:35:06.156Z,17.40
2022-12-05T02:37:43.869Z,17.63
2022-12-05T02:40:32.644Z,18.45
2022-12-05T02:43:07.153Z,18.42
2022-12-05T02:45:35.268Z,18.69
2022-12-05T02:48:02.497Z,18.39
2022-12-05T02:50:34.364Z,18.12
2022-12-05T02:53:04.040Z,18.74
2022-12-05T02:55:31.297Z,17.92
2022-12-05T02:58:08.648Z,18.42
2022-12-05T03:00:38.360Z,18.36
2022-12-05T03:03:11.348Z,18.93
2022-12-05T03:05:42.978Z,18.55
2022-12-05T03:08:12.965Z,18.66
2022-12-05T03:10:40.521Z,18.81
2022-12-05T03:13:15.496Z,18.26
2022-12-05T03:15:48.878Z,18.58
2022-12-05T03:18:20.861Z,18.87
2022-12-05T03:21:10.725Z,19.26
2022-12-05T03:23:39.984Z,19.36
2022-12-05T03:26:16.287Z,19.16
2022-12-05T03:28:55.252Z,19.22
2022-12-05T03:31:43.257Z,19.14
2022-12-05T03:34:16.735Z,18.51
2022-12-05T03:36:46.125Z,18.72
2022-12-05T03:39:25.776Z,18.73
2022-12-05T03:42:12.996Z,17.79
2022-12-05T03:44:42.973Z,17.52
2022-12-05T03:47:38.696Z,16.29
2022-12-05T03:50:29.813Z,16.22
2022-12-05T03:53:19.622Z,16.73
2022-12-05T03:56:01.971Z,15.57
2022-12-05T03:58:35.764Z,15.67
2022-12-05T04:01:02.876Z,15.76
2022-12-05T04:03:41.106Z,15.55
2022-12-05T04:06:15.404Z,15.75
2022-12-05T04:08:48.493Z,15.38
2022-12-05T04:11:25.019Z,15.53
2022-12-05T04:14:40.170Z,15.52
2022-12-05T04:17:59.398Z,15.39
2022-12-05T04:20:44.954Z,15.05
2022-12-05T04:23:12.829Z,15.99
2022-12-05T04:25:47.917Z,16.54
2022-12-05T04:28:34.086Z,15.71
2022-12-05T04:31:03.268Z,15.67
2022-12-05T04:33:42.691Z,15.18
2022-12-05T04:36:13.083Z,15.27
2022-12-05T04:38:56.065Z,15.54
2022-12-05T04:41:27.169Z,15.98
2022-12-05T04:43:55.842Z,17.18
2022-12-05T04:46:22.995Z,17.42
2022-12-05T04:48:56.576Z,16.54
2022-12-05T04:52:03.243Z,17.21
2022-12-05T04:54:32.304Z,18.19
2022-12-05T04:57:13.569Z,17.43
2022-12-05T04:59:40.758Z,17.79
2022-12-05T05:02:08.903Z,17.96
2022-12-05T05:04:38.308Z,19.11
2022-12-05T05:07:12.013Z,17.93
2022-12-05T05:09:39.352Z,18.54
2022-12-05T05:12:10.507Z,18.56
2022-12-05T05:14:40.156Z,18.32
2022-12-05T05:17:07.737Z,18.41
2022-12-05T05:19:40.532Z,18.20
2022-12-05T05:22:10.165Z,17.29
2022-12-05T05:24:37.233Z,17.93
2022-12-05T05:27:06.907Z,17.42
2022-12-05T05:29:34.072Z,17.72
2022-12-05T05:32:03.360Z,17.16
2022-12-05T05:34:30.449Z,17.29
2022-12-05T05:37:01.057Z,16.84
2022-12-05T05:39:29.029Z,16.63
2022-12-05T05:41:56.114Z,17.54
2022-12-05T05:44:25.958Z,17.26
2022-12-05T05:46:53.910Z,16.56
2022-12-05T05:49:22.690Z,17.01
2022-12-05T05:51:49.620Z,17.34
2022-12-05T05:54:16.657Z,17.05
2022-12-05T05:56:43.849Z,17.42
2022-12-05T05:59:16.746Z,17.95
2022-12-05T06:01:44.644Z,17.06
2022-12-05T06:04:12.041Z,17.64
2022-12-05T06:06:38.916Z,17.54
2022-12-05T06:09:07.012Z,17.39
2022-12-05T06:11:34.859Z,17.61
2022-12-05T06:14:05.612Z,18.05
2022-12-05T06:16:36.254Z,16.70
2022-12-05T06:19:05.460Z,16.97
2022-12-05T06:21:35.104Z,17.81
2022-12-05T06:24:08.222Z,16.60
2022-12-05T06:26:38.248Z,15.85
2022-12-05T06:29:05.438Z,15.11
2022-12-05T06:31:33.392Z,15.57
2022-12-05T06:34:02.108Z,15.40
2022-12-05T06:36:29.988Z,15.24
2022-12-05T06:38:57.519Z,15.25
2022-12-05T06:41:25.318Z,15.82
2022-12-05T06:43:57.376Z,15.56
2022-12-05T06:46:27.125Z,15.19
2022-12-05T06:48:58.396Z,15.47
2022-12-05T06:51:26.061Z,15.50
2022-12-05T06:53:53.030Z,15.99
2022-12-05T06:56:20.054Z,16.01
2022-12-05T06:58:51.580Z,15.99
2022-12-05T07:01:20.209Z,16.23
2022-12-05T07:03:49.271Z,16.25
2022-12-05T07:06:16.711Z,15.53
2022-12-05T07:08:43.425Z,15.75
2022-12-05T07:11:10.412Z,16.96
2022-12-05T07:13:37.156Z,16.68
2022-12-05T07:16:04.594Z,16.35
2022-12-05T07:18:32.432Z,16.53
2022-12-05T07:21:16.892Z,16.50
2022-12-05T07:23:47.777Z,17.40
2022-12-05T07:26:22.019Z,17.44
2022-12-05T07:28:48.845Z,17.32
2022-12-05T07:31:22.461Z,16.85
2022-12-05T07:34:01.506Z,16.97
2022-12-05T07:36:28.336Z,15.83
2022-12-05T07:38:56.952Z,16.17
2022-12-05T07:41:26.156Z,15.85
2022-12-05T07:43:57.282Z,15.84
2022-12-05T07:46:24.628Z,15.93
2022-12-05T07:48:52.092Z,16.49
2022-12-05T07:51:20.165Z,16.48
2022-12-05T07:53:47.971Z,16.28
2022-12-05T07:56:15.705Z,17.50
2022-12-05T07:58:45.738Z,16.93
2022-12-05T08:01:23.349Z,16.21
2022-12-05T08:03:50.358Z,16.59
2022-12-05T08:06:27.058Z,17.60
2022-12-05T08:08:53.915Z,17.71
2022-12-05T08:11:30.471Z,16.87
2022-12-05T08:14:00.121Z,17.78
2022-12-05T08:16:27.891Z,17.67
2022-12-05T08:19:08.624Z,17.50
2022-12-05T08:21:36.555Z,17.29
2022-12-05T08:24:07.845Z,17.62
2022-12-05T08:26:35.681Z,17.89
2022-12-05T08:29:13.086Z,18.02
2022-12-05T08:31:59.757Z,18.26
2022-12-05T08:34:39.660Z,18.37
2022-12-05T08:37:09.449Z,18.55
2022-12-05T08:39:38.633Z,18.25
2022-12-05T08:42:06.076Z,18.02
2022-12-05T08:44:32.892Z,17.90
2022-12-05T08:46:59.980Z,17.92
2022-12-05T08:49:27.744Z,17.97
2022-12-05T08:51:57.403Z,17.82
2022-12-05T08:54:27.586Z,18.61
2022-12-05T08:56:55.128Z,17.59
2022-12-05T08:59:23.645Z,17.81
2022-12-05T09:01:51.026Z,16.70
2022-12-05T09:04:18.294Z,18.29
2022-12-05T09:06:47.050Z,17.31
2022-12-05T09:09:14.374Z,17.14
2022-12-05T09:11:46.870Z,16.46
2022-12-05T09:14:13.845Z,16.78
2022-12-05T09:16:41.021Z,16.83
2022-12-05T09:19:12.853Z,16.93
2022-12-05T09:21:39.909Z,16.24
2022-12-05T09:24:07.198Z,16.41
2022-12-05T09:26:33.925Z,16.36
2022-12-05T09:29:02.776Z,16.67
2022-12-05T09:31:29.642Z,17.26
2022-12-05T09:33:56.817Z,15.02
2022-12-05T09:36:28.383Z,14.46
2022-12-05T09:38:55.465Z,13.79
2022-12-05T09:42:11.343Z,13.00
2022-12-05T09:44:53.459Z,13.75
2022-12-05T09:47:24.393Z,13.47
2022-12-05T09:50:01.537Z,13.14
2022-12-05T09:53:08.725Z,13.37
2022-12-05T09:55:47.406Z,14.43
2022-12-05T09:58:37.847Z,14.06
2022-12-05T10:01:27.759Z,14.86
2022-12-05T10:04:21.860Z,14.76
2022-12-05T10:07:07.518Z,14.46
2022-12-05T10:10:13.537Z,15.41
2022-12-05T10:13:14.221Z,16.57
2022-12-05T10:15:57.278Z,15.60
2022-12-05T10:18:30.892Z,14.94
2022-12-05T10:21:06.560Z,14.73
2022-12-05T10:23:58.414Z,14.55
2022-12-05T10:26:29.357Z,14.59
2022-12-05T10:29:11.520Z,15.10
2022-12-05T10:31:38.847Z,14.86
2022-12-05T10:34:51.022Z,13.17
2022-12-05T10:37:18.887Z,12.70
2022-12-05T10:39:46.608Z,13.15
2022-12-05T10:42:45.648Z,12.90
2022-12-05T10:45:22.193Z,12.58
2022-12-05T10:47:53.594Z,13.17
2022-12-05T10:50:29.012Z,12.74
2022-12-05T10:52:59.116Z,12.79
2022-12-05T10:56:21.437Z,12.77
2022-12-05T10:58:36.596Z,12.68
2022-12-05T11:01:10.580Z,13.04
2022-12-05T11:03:41.006Z,13.95
2022-12-05T11:06:27.829Z,13.92
2022-12-05T11:09:14.732Z,13.86
2022-12-05T11:11:41.532Z,14.56
2022-12-05T11:14:24.566Z,13.78
2022-12-05T11:17:22.641Z,14.22
2022-12-05T11:19:52.107Z,13.88
2022-12-05T11:29:43.912Z,13.49
2022-12-05T11:32:06.296Z,14.18
2022-12-05T11:34:37.742Z,13.70
2022-12-05T11:37:13.787Z,13.14
2022-12-05T11:39:41.938Z,13.09
2022-12-05T11:42:47.565Z,13.42
2022-12-05T11:45:41.670Z,13.08
2022-12-05T11:48:59.261Z,13.06
2022-12-05T11:51:44.443Z,13.40
2022-12-05T11:54:56.685Z,13.05
2022-12-05T11:57:51.820Z,12.84
2022-12-05T12:00:35.202Z,12.13
2022-12-05T12:03:36.099Z,11.46
2022-12-05T12:06:50.990Z,10.70
2022-12-05T12:10:07.027Z,10.74
2022-12-05T12:13:02.898Z,11.56
2022-12-05T12:15:51.641Z,10.99
2022-12-05T12:18:40.131Z,11.67
2022-12-05T12:21:45.448Z,11.88
2022-12-05T12:24:43.426Z,11.26
2022-12-05T12:27:49.849Z,12.56
2022-12-05T12:30:27.946Z,12.39
2022-12-05T12:33:34.537Z,12.13
2022-12-05T12:36:23.687Z,10.77
2022-12-05T12:39:07.824Z,9.41
2022-12-05T12:42:07.885Z,10.03
2022-12-05T12:44:59.422Z,10.07
2022-12-05T12:47:26.439Z,9.81
2022-12-05T12:50:15.451Z,9.53
2022-12-05T12:53:11.929Z,10.58
2022-12-05T12:56:00.743Z,11.58
2022-12-05T12:58:32.152Z,11.58
2022-12-05T13:01:04.163Z,10.60
2022-12-05T13:03:34.089Z,9.74
2022-12-05T13:06:12.401Z,11.15
2022-12-05T13:08:43.441Z,10.89
2022-12-05T13:11:11.500Z,10.08
2022-12-05T13:13:49.892Z,10.54
2022-12-05T13:16:39.925Z,10.99
2022-12-05T13:19:43.030Z,11.40
2022-12-05T13:22:09.913Z,10.61
2022-12-05T13:24:39.704Z,10.81
2022-12-05T13:27:09.129Z,11.50
2022-12-05T13:29:43.236Z,11.72
2022-12-05T13:32:39.348Z,12.21
2022-12-05T13:35:31.751Z,11.89
2022-12-05T13:38:27.423Z,11.51
2022-12-05T13:40:57.041Z,9.84
2022-12-05T13:44:04.942Z,9.87
2022-12-05T13:46:34.616Z,10.38
2022-12-05T13:49:32.702Z,10.88
2022-12-05T13:52:14.231Z,11.27
2022-12-05T13:54:51.724Z,11.21
2022-12-05T13:57:55.338Z,11.65
2022-12-05T14:00:35.285Z,8.64
2022-12-05T14:03:04.495Z,7.92
2022-12-05T14:05:51.465Z,7.11
2022-12-05T14:08:52.225Z,7.76
2022-12-05T14:11:19.305Z,7.60
2022-12-05T14:13:46.552Z,6.38
2022-12-05T14:16:31.490Z,6.36
2022-12-05T14:19:38.087Z,7.14
2022-12-05T14:22:33.912Z,7.91
2022-12-05T14:25:58.224Z,8.14
2022-12-05T14:28:59.329Z,7.96
2022-12-05T14:32:04.599Z,7.76
2022-12-05T14:34:33.467Z,8.01
2022-12-05T14:37:07.814Z,7.88
2022-12-05T14:39:38.430Z,7.84
2022-12-05T14:42:16.570Z,7.89
2022-12-05T14:44:49.486Z,8.28
2022-12-05T14:47:21.493Z,9.03
2022-12-05T14:50:00.382Z,8.81
2022-12-05T14:52:32.829Z,8.61
2022-12-05T14:55:06.856Z,8.70
2022-12-05T14:57:45.546Z,8.33
2022-12-05T15:00:20.964Z,8.32
2022-12-05T15:02:47.959Z,8.54
2022-12-05T15:05:34.944Z,8.46
2022-12-05T15:08:02.105Z,8.22
2022-12-05T15:10:35.675Z,8.33
2022-12-05T15:13:21.240Z,8.06
2022-12-05T15:16:01.671Z,7.47
2022-12-05T15:18:34.584Z,7.40
2022-12-05T15:21:31.290Z,7.38
2022-12-05T15:24:05.886Z,6.16
2022-12-05T15:26:51.375Z,6.32
2022-12-05T15:29:21.913Z,6.75
2022-12-05T15:32:01.031Z,6.21
2022-12-05T15:34:41.120Z,6.50
2022-12-05T15:37:18.194Z,6.41
2022-12-05T15:39:56.705Z,6.62
2022-12-05T15:42:47.728Z,6.35
2022-12-05T15:45:23.654Z,6.63
2022-12-05T15:47:51.416Z,8.24
2022-12-05T15:50:39.262Z,8.45
2022-12-05T15:53:12.506Z,7.60
2022-12-05T15:55:55.966Z,7.75
2022-12-05T15:58:32.906Z,7.09
2022-12-05T16:01:08.925Z,7.02
2022-12-05T16:04:07.474Z,7.59
2022-12-05T16:06:39.546Z,7.61
2022-12-05T16:09:17.752Z,7.82
2022-12-05T16:11:58.111Z,7.86
2022-12-05T16:14:51.346Z,8.65
2022-12-05T16:17:17.156Z,9.03
2022-12-05T16:19:47.159Z,9.41
2022-12-05T16:22:23.720Z,11.13
2022-12-05T16:25:01.267Z,11.27
2022-12-05T16:27:38.519Z,9.30
2022-12-05T16:30:22.486Z,9.46
2022-12-05T16:32:51.493Z,9.24
2022-12-05T16:35:40.264Z,9.86
2022-12-05T16:38:26.564Z,10.13
2022-12-05T16:40:55.470Z,10.19
2022-12-05T16:43:32.366Z,10.54
2022-12-05T16:46:19.143Z,10.17
2022-12-05T16:49:19.060Z,10.84
2022-12-05T16:51:53.103Z,10.50
2022-12-05T16:54:20.489Z,10.93
2022-12-05T16:56:47.713Z,11.85
2022-12-05T16:59:22.857Z,12.12
2022-12-05T17:01:50.112Z,12.11
2022-12-05T17:04:17.636Z,12.49
2022-12-05T17:06:49.648Z,12.07
2022-12-05T17:09:16.821Z,12.14
2022-12-05T17:11:46.959Z,13.44
2022-12-05T17:14:14.684Z,14.87
2022-12-05T17:16:42.204Z,16.14
2022-12-05T17:19:10.143Z,17.03
2022-12-05T17:21:37.467Z,18.32
2022-12-05T17:24:06.205Z,18.40
2022-12-05T17:26:51.961Z,18.76
2022-12-05T17:29:19.940Z,17.63
2022-12-05T17:31:47.352Z,16.74
2022-12-05T17:34:16.339Z,15.84
2022-12-05T17:36:47.343Z,15.32
2022-12-05T17:39:14.500Z,15.58
2022-12-05T17:41:46.318Z,16.17
2022-12-05T17:44:13.922Z,16.23
2022-12-05T17:46:42.797Z,15.74
2022-12-05T17:49:14.322Z,16.02
2022-12-05T17:52:05.568Z,16.71
2022-12-05T17:54:30.190Z,16.58
2022-12-05T17:56:59.955Z,16.62
2022-12-05T17:59:26.689Z,15.68
2022-12-05T18:01:53.622Z,14.98
2022-12-05T18:04:23.312Z,15.18
2022-12-05T18:06:50.839Z,15.26
2022-12-05T18:09:17.573Z,15.45
2022-12-05T18:11:44.824Z,15.50
2022-12-05T18:14:14.485Z,15.84
2022-12-05T18:16:41.437Z,16.25
2022-12-05T18:19:08.620Z,16.25
2022-12-05T18:21:35.543Z,16.41
2022-12-05T18:24:02.787Z,16.62
2022-12-05T18:26:35.431Z,17.15
2022-12-05T18:29:02.443Z,16.43
2022-12-05T18:31:33.852Z,16.10
2022-12-05T18:34:01.893Z,16.33
2022-12-05T18:36:32.011Z,15.89
2022-12-05T18:39:01.868Z,15.67
2022-12-05T18:41:30.217Z,15.55
2022-12-05T18:43:57.473Z,15.41
2022-12-05T18:46:27.116Z,16.78
2022-12-05T18:48:58.947Z,17.24
2022-12-05T18:51:34.335Z,16.56
2022-12-05T18:54:04.103Z,16.53
2022-12-05T18:56:32.204Z,16.94
2022-12-05T18:59:06.540Z,17.52
2022-12-05T19:01:35.339Z,18.24
2022-12-05T19:04:02.659Z,18.09
2022-12-05T19:06:30.837Z,17.57
2022-12-05T19:09:03.298Z,17.92
2022-12-05T19:11:30.377Z,18.51
2022-12-05T19:13:58.698Z,19.06
2022-12-05T19:16:27.084Z,20.16
2022-12-05T19:18:55.366Z,22.67
2022-12-05T19:21:23.911Z,26.08
2022-12-05T19:23:53.902Z,27.21
2022-12-05T19:26:20.951Z,26.55
2022-12-05T19:28:47.753Z,25.72
2022-12-05T19:31:19.873Z,26.19
2022-12-05T19:33:54.587Z,26.62
2022-12-05T19:36:28.280Z,25.91
2022-12-05T19:38:55.490Z,24.11
2022-12-05T19:41:25.453Z,23.43
2022-12-05T19:43:53.142Z,23.48
2022-12-05T19:46:23.891Z,24.68
2022-12-05T19:48:50.748Z,25.32
2022-12-05T19:51:18.992Z,23.99
2022-12-05T19:53:45.880Z,22.98
2022-12-05T19:56:23.081Z,22.96
2022-12-05T19:58:52.947Z,22.69
2022-12-05T20:01:37.421Z,22.74
2022-12-05T20:04:28.608Z,22.49
2022-12-05T20:06:55.434Z,22.76
2022-12-05T20:09:23.395Z,22.48
2022-12-05T20:11:55.026Z,21.79
2022-12-05T20:14:24.011Z,21.41
2022-12-05T20:16:50.940Z,21.17
2022-12-05T20:19:24.117Z,20.85
2022-12-05T20:21:54.310Z,21.12
2022-12-05T20:24:21.329Z,20.11
2022-12-05T20:26:48.563Z,20.38
2022-12-05T20:29:16.164Z,20.08
2022-12-05T20:31:43.387Z,19.99
2022-12-05T20:34:11.470Z,19.54
2022-12-05T20:36:38.685Z,20.44
2022-12-05T20:39:07.469Z,20.34
2022-12-05T20:41:34.661Z,20.84
2022-12-05T20:44:03.726Z,21.10
2022-12-05T20:46:40.779Z,21.13
2022-12-05T20:49:09.514Z,20.40
2022-12-05T20:51:36.582Z,20.35
2022-12-05T20:54:05.523Z,20.37
2022-12-05T20:56:32.841Z,20.91
2022-12-05T20:59:01.449Z,20.67
2022-12-05T21:01:32.366Z,20.24
2022-12-05T21:04:00.852Z,19.81
2022-12-05T21:06:32.346Z,20.26
2022-12-05T21:08:59.713Z,20.42
2022-12-05T21:11:26.997Z,20.13
2022-12-05T21:13:57.957Z,19.95
2022-12-05T21:16:25.817Z,18.53
2022-12-05T21:18:55.563Z,18.93
2022-12-05T21:21:28.104Z,17.99
2022-12-05T21:23:59.644Z,18.65
2022-12-05T21:26:57.328Z,17.98
2022-12-05T21:29:24.051Z,18.14
2022-12-05T21:31:52.178Z,17.82
2022-12-05T21:34:22.607Z,17.16
2022-12-05T21:36:50.429Z,17.06
2022-12-05T21:39:17.785Z,16.67
2022-12-05T21:41:44.500Z,16.44
2022-12-05T21:44:11.699Z,16.32
2022-12-05T21:46:38.564Z,16.03
2022-12-05T21:49:05.724Z,15.97
2022-12-05T21:51:33.039Z,15.39
2022-12-05T21:54:00.492Z,14.81
2022-12-05T21:56:27.622Z,14.91
2022-12-05T21:58:59.505Z,14.90
2022-12-05T22:01:27.437Z,15.44
2022-12-05T22:03:56.309Z,15.14
2022-12-05T22:06:29.556Z,14.43
2022-12-05T22:08:56.780Z,14.04
2022-12-05T22:11:24.134Z,14.91
2022-12-05T22:13:51.211Z,14.13
2022-12-05T22:16:18.409Z,14.90
2022-12-05T22:18:45.759Z,14.27
2022-12-05T22:21:17.620Z,14.11
2022-12-05T22:23:44.949Z,14.06
2022-12-05T22:26:16.428Z,14.29
2022-12-05T22:28:44.278Z,13.65
2022-12-05T22:31:14.268Z,13.64
2022-12-05T22:33:41.693Z,13.72
2022-12-05T22:36:10.105Z,13.53
2022-12-05T22:39:01.912Z,13.86
2022-12-05T22:41:28.944Z,13.60
2022-12-05T22:43:59.757Z,13.38
2022-12-05T22:46:27.863Z,13.97
2022-12-05T22:48:59.909Z,13.24
2022-12-05T22:51:26.891Z,12.92
2022-12-05T22:53:55.644Z,12.81
2022-12-05T22:56:24.766Z,12.14
2022-12-05T22:59:14.795Z,12.51
2022-12-05T23:01:44.438Z,11.91
2022-12-05T23:04:11.885Z,11.88
2022-12-05T23:06:39.829Z,11.72
2022-12-05T23:09:07.854Z,11.42
2022-12-05T23:11:34.769Z,12.06
2022-12-05T23:14:07.042Z,11.61
2022-12-05T23:16:34.456Z,11.69
2022-12-05T23:19:03.391Z,12.55
2022-12-05T23:21:40.249Z,12.23
2022-12-05T23:24:17.205Z,12.26
2022-12-05T23:26:45.759Z,11.94
2022-12-05T23:29:13.265Z,12.55
2022-12-05T23:31:42.878Z,11.83
2022-12-05T23:34:10.373Z,11.47
2022-12-05T23:36:37.421Z,11.51
2022-12-05T23:39:05.884Z,12.28
2022-12-05T23:41:32.993Z,11.69
2022-12-05T23:44:00.126Z,11.63
2022-12-05T23:46:27.421Z,10.87
2022-12-05T23:48:54.498Z,10.84
2022-12-05T23:51:22.603Z,10.78
2022-12-05T23:53:53.448Z,10.52
2022-12-05T23:56:24.814Z,10.65
2022-12-05T23:58:52.833Z,9.87
